Portada
METAR-TAF:

METAR-TAF

Aeroports :

Ranchi, Índia

latitud: 23-18-51N, longitud: 85-19-18E, altitud: 646 m

Observació

L'informe es va fer fa 23 minuts, a les 09:30 UTC
Vent 3 kt del Est/Nord-Est
Temperatura 18°C
Humitat 100%
Pressió 1017 hPa
Visibilitat: 1300 m
Núvols disperses a una alçada de 1000 ft
Núvols disperses a una alçada de 1500 ft
Cel cobert a una alçada de 8000 ft
pluja

METAR: VERC 150930Z 07003KT 1300 RA SCT010 SCT015 OVC080 18/18 Q1017 NOSIG

Hora: 15:23 (09:53 UTC)

Pronòstic

L'informe es va fer fa 1 hora i 53 minuts, a les 08:00 UTC
Pronòstic vàlid del 15 a les 09 UTC al 15 a les 18 UTC
Vent 3 kt del Sud-Est
Visibilitat: 1500 m
Núvols disperses a una alçada de 2000 ft
Cel ennuvolat a una alçada de 10000 ft
pluja
Evolucionant progressivament
l' 15 a les 15 UTC al 15 a les 17 UTC
Visibilitat: 2000 m
pluja, calitja

TAF: VERC 150800Z 1509/1518 14003KT 1500 RA SCT020 BKN100 BECMG 1515/1517 2000 -RA HZ

Observacions i pronòstics meteorològics de més de 4000 aeroports (METAR i TAF).

Les estacions disponibles són els punts grocs i vermells al mapa.

Posi el ratolí al punt desitjat per veure el nom de l'estació.

Feu clic per veure les observacions i els pronòstics meteorològics.

Per canviar el mapa: feu clic els botons verds amb una creu de color negre per apropar; al botó verd amb un guió per allunyar la imatge; o en les fletxes verdes per a mapes adjacents.


METAR-TAF: